sensor_id;sensor_type;location;lat;lon;timestamp;P1;durP1;ratioP1;P2;durP2;ratioP2
8401;SDS011;4238;48.404;9.498;2022-07-23T00:00:39;7.72;;;7.13;;
8401;SDS011;4238;48.404;9.498;2022-07-23T00:03:06;8.32;;;7.72;;
8401;SDS011;4238;48.404;9.498;2022-07-23T00:05:33;8.25;;;7.55;;
8401;SDS011;4238;48.404;9.498;2022-07-23T00:08:01;7.72;;;6.93;;
8401;SDS011;4238;48.404;9.498;2022-07-23T00:10:28;8.27;;;7.50;;
8401;SDS011;4238;48.404;9.498;2022-07-23T00:12:55;9.07;;;8.32;;
8401;SDS011;4238;48.404;9.498;2022-07-23T00:15:22;8.82;;;8.13;;
8401;SDS011;4238;48.404;9.498;2022-07-23T00:17:49;8.35;;;7.55;;
8401;SDS011;4238;48.404;9.498;2022-07-23T00:20:16;8.10;;;7.50;;
8401;SDS011;4238;48.404;9.498;2022-07-23T00:22:47;8.20;;;7.60;;
8401;SDS011;4238;48.404;9.498;2022-07-23T00:25:15;8.32;;;7.63;;
8401;SDS011;4238;48.404;9.498;2022-07-23T00:27:42;7.72;;;7.13;;
8401;SDS011;4238;48.404;9.498;2022-07-23T00:30:10;9.18;;;8.27;;
8401;SDS011;4238;48.404;9.498;2022-07-23T00:32:45;8.60;;;7.90;;
8401;SDS011;4238;48.404;9.498;2022-07-23T00:35:13;8.35;;;7.75;;
8401;SDS011;4238;48.404;9.498;2022-07-23T00:37:40;9.00;;;8.20;;
8401;SDS011;4238;48.404;9.498;2022-07-23T00:40:08;9.43;;;8.48;;
8401;SDS011;4238;48.404;9.498;2022-07-23T00:42:37;8.15;;;7.45;;
8401;SDS011;4238;48.404;9.498;2022-07-23T00:45:05;8.13;;;7.43;;
8401;SDS011;4238;48.404;9.498;2022-07-23T00:47:33;7.85;;;7.22;;
8401;SDS011;4238;48.404;9.498;2022-07-23T00:50:00;9.00;;;8.10;;
8401;SDS011;4238;48.404;9.498;2022-07-23T00:52:29;7.80;;;7.18;;
8401;SDS011;4238;48.404;9.498;2022-07-23T00:54:56;8.60;;;7.90;;
8401;SDS011;4238;48.404;9.498;2022-07-23T01:05:07;8.10;;;7.40;;
8401;SDS011;4238;48.404;9.498;2022-07-23T01:07:35;8.50;;;7.70;;
8401;SDS011;4238;48.404;9.498;2022-07-23T01:10:02;8.18;;;7.57;;
8401;SDS011;4238;48.404;9.498;2022-07-23T01:12:50;8.43;;;7.72;;
8401;SDS011;4238;48.404;9.498;2022-07-23T01:15:17;9.10;;;8.30;;
8401;SDS011;4238;48.404;9.498;2022-07-23T01:17:43;7.90;;;7.20;;
8401;SDS011;4238;48.404;9.498;2022-07-23T01:20:12;8.35;;;7.75;;
8401;SDS011;4238;48.404;9.498;2022-07-23T01:22:40;9.20;;;8.30;;
8401;SDS011;4238;48.404;9.498;2022-07-23T01:25:07;8.85;;;8.05;;
8401;SDS011;4238;48.404;9.498;2022-07-23T01:27:34;9.10;;;8.30;;
8401;SDS011;4238;48.404;9.498;2022-07-23T01:30:02;8.70;;;8.00;;
8401;SDS011;4238;48.404;9.498;2022-07-23T01:32:30;8.60;;;7.90;;
8401;SDS011;4238;48.404;9.498;2022-07-23T01:34:57;8.07;;;7.38;;
8401;SDS011;4238;48.404;9.498;2022-07-23T01:37:24;8.85;;;8.15;;
8401;SDS011;4238;48.404;9.498;2022-07-23T01:39:52;8.98;;;8.32;;
8401;SDS011;4238;48.404;9.498;2022-07-23T01:42:19;9.13;;;8.32;;
8401;SDS011;4238;48.404;9.498;2022-07-23T01:44:46;8.25;;;7.65;;
8401;SDS011;4238;48.404;9.498;2022-07-23T01:47:13;8.63;;;7.93;;
8401;SDS011;4238;48.404;9.498;2022-07-23T01:49:40;9.65;;;8.85;;
8401;SDS011;4238;48.404;9.498;2022-07-23T01:52:07;9.23;;;8.43;;
8401;SDS011;4238;48.404;9.498;2022-07-23T01:54:36;8.77;;;8.10;;
8401;SDS011;4238;48.404;9.498;2022-07-23T01:57:05;8.35;;;7.65;;
8401;SDS011;4238;48.404;9.498;2022-07-23T01:59:32;8.63;;;7.95;;
8401;SDS011;4238;48.404;9.498;2022-07-23T02:02:00;8.15;;;7.38;;
8401;SDS011;4238;48.404;9.498;2022-07-23T02:04:28;9.05;;;8.25;;
8401;SDS011;4238;48.404;9.498;2022-07-23T02:06:55;8.20;;;7.57;;
8401;SDS011;4238;48.404;9.498;2022-07-23T02:09:22;8.73;;;8.13;;
8401;SDS011;4238;48.404;9.498;2022-07-23T02:11:49;8.50;;;7.80;;
8401;SDS011;4238;48.404;9.498;2022-07-23T02:14:17;8.75;;;7.95;;
8401;SDS011;4238;48.404;9.498;2022-07-23T02:16:44;8.57;;;7.88;;
8401;SDS011;4238;48.404;9.498;2022-07-23T02:19:11;8.40;;;7.70;;
8401;SDS011;4238;48.404;9.498;2022-07-23T02:21:38;9.25;;;8.35;;
8401;SDS011;4238;48.404;9.498;2022-07-23T02:24:05;8.60;;;7.90;;
8401;SDS011;4238;48.404;9.498;2022-07-23T02:26:32;10.02;;;9.02;;
8401;SDS011;4238;48.404;9.498;2022-07-23T02:36:47;8.93;;;8.15;;
8401;SDS011;4238;48.404;9.498;2022-07-23T02:39:14;10.30;;;9.35;;
8401;SDS011;4238;48.404;9.498;2022-07-23T02:41:41;9.60;;;8.80;;
8401;SDS011;4238;48.404;9.498;2022-07-23T02:44:07;10.48;;;9.60;;
8401;SDS011;4238;48.404;9.498;2022-07-23T02:46:34;9.40;;;8.50;;
8401;SDS011;4238;48.404;9.498;2022-07-23T02:49:01;10.38;;;9.48;;
8401;SDS011;4238;48.404;9.498;2022-07-23T02:51:29;9.85;;;9.05;;
8401;SDS011;4238;48.404;9.498;2022-07-23T02:53:57;9.52;;;8.82;;
8401;SDS011;4238;48.404;9.498;2022-07-23T02:56:24;10.93;;;9.93;;
8401;SDS011;4238;48.404;9.498;2022-07-23T02:58:51;10.57;;;9.70;;
8401;SDS011;4238;48.404;9.498;2022-07-23T03:01:18;10.25;;;9.38;;
8401;SDS011;4238;48.404;9.498;2022-07-23T03:03:45;10.13;;;9.15;;
8401;SDS011;4238;48.404;9.498;2022-07-23T03:06:12;10.63;;;9.80;;
8401;SDS011;4238;48.404;9.498;2022-07-23T03:08:39;10.40;;;9.52;;
8401;SDS011;4238;48.404;9.498;2022-07-23T03:11:07;11.25;;;10.15;;
8401;SDS011;4238;48.404;9.498;2022-07-23T03:13:36;10.93;;;9.98;;
8401;SDS011;4238;48.404;9.498;2022-07-23T03:16:03;12.00;;;10.90;;
8401;SDS011;4238;48.404;9.498;2022-07-23T03:18:31;11.07;;;10.18;;
8401;SDS011;4238;48.404;9.498;2022-07-23T03:20:57;10.80;;;9.90;;
8401;SDS011;4238;48.404;9.498;2022-07-23T03:23:25;10.75;;;9.75;;
8401;SDS011;4238;48.404;9.498;2022-07-23T03:25:52;10.75;;;9.75;;
8401;SDS011;4238;48.404;9.498;2022-07-23T03:28:20;11.52;;;10.43;;
8401;SDS011;4238;48.404;9.498;2022-07-23T03:30:47;10.48;;;9.57;;
8401;SDS011;4238;48.404;9.498;2022-07-23T03:33:14;10.60;;;9.52;;
8401;SDS011;4238;48.404;9.498;2022-07-23T03:35:42;10.85;;;9.95;;
8401;SDS011;4238;48.404;9.498;2022-07-23T03:38:09;11.23;;;10.15;;
8401;SDS011;4238;48.404;9.498;2022-07-23T03:40:36;9.93;;;9.02;;
8401;SDS011;4238;48.404;9.498;2022-07-23T03:43:03;11.23;;;10.13;;
8401;SDS011;4238;48.404;9.498;2022-07-23T03:45:31;12.10;;;10.88;;
8401;SDS011;4238;48.404;9.498;2022-07-23T03:47:59;10.65;;;9.70;;
8401;SDS011;4238;48.404;9.498;2022-07-23T03:50:26;10.80;;;9.90;;
8401;SDS011;4238;48.404;9.498;2022-07-23T03:52:53;11.15;;;10.13;;
8401;SDS011;4238;48.404;9.498;2022-07-23T03:55:20;11.40;;;10.10;;
8401;SDS011;4238;48.404;9.498;2022-07-23T03:57:47;9.50;;;8.80;;
8401;SDS011;4238;48.404;9.498;2022-07-23T04:00:14;10.98;;;9.98;;
8401;SDS011;4238;48.404;9.498;2022-07-23T04:02:42;11.20;;;10.20;;
8401;SDS011;4238;48.404;9.498;2022-07-23T04:05:09;10.52;;;9.52;;
8401;SDS011;4238;48.404;9.498;2022-07-23T04:07:36;10.85;;;9.90;;
8401;SDS011;4238;48.404;9.498;2022-07-23T04:10:03;10.65;;;9.77;;
8401;SDS011;4238;48.404;9.498;2022-07-23T04:12:31;10.65;;;9.70;;
8401;SDS011;4238;48.404;9.498;2022-07-23T04:14:58;10.85;;;9.77;;
8401;SDS011;4238;48.404;9.498;2022-07-23T04:17:24;10.38;;;9.48;;
8401;SDS011;4238;48.404;9.498;2022-07-23T04:19:53;9.98;;;9.07;;
8401;SDS011;4238;48.404;9.498;2022-07-23T04:22:20;10.45;;;9.57;;
8401;SDS011;4238;48.404;9.498;2022-07-23T04:24:47;9.85;;;9.05;;
8401;SDS011;4238;48.404;9.498;2022-07-23T04:27:14;10.00;;;9.00;;
8401;SDS011;4238;48.404;9.498;2022-07-23T04:29:41;10.82;;;9.80;;
8401;SDS011;4238;48.404;9.498;2022-07-23T04:32:08;9.80;;;9.05;;
8401;SDS011;4238;48.404;9.498;2022-07-23T04:34:35;10.15;;;9.35;;
8401;SDS011;4238;48.404;9.498;2022-07-23T04:37:03;10.27;;;9.48;;
8401;SDS011;4238;48.404;9.498;2022-07-23T04:39:30;12.73;;;9.32;;
8401;SDS011;4238;48.404;9.498;2022-07-23T04:41:57;10.48;;;9.60;;
8401;SDS011;4238;48.404;9.498;2022-07-23T04:44:23;10.77;;;9.70;;
8401;SDS011;4238;48.404;9.498;2022-07-23T04:46:51;11.88;;;10.70;;
8401;SDS011;4238;48.404;9.498;2022-07-23T04:49:18;12.07;;;10.88;;
8401;SDS011;4238;48.404;9.498;2022-07-23T04:51:44;10.93;;;9.93;;
8401;SDS011;4238;48.404;9.498;2022-07-23T04:54:13;11.33;;;10.33;;
8401;SDS011;4238;48.404;9.498;2022-07-23T04:56:40;10.77;;;9.98;;
8401;SDS011;4238;48.404;9.498;2022-07-23T04:59:06;10.07;;;9.07;;
8401;SDS011;4238;48.404;9.498;2022-07-23T05:01:33;10.68;;;9.70;;
8401;SDS011;4238;48.404;9.498;2022-07-23T05:04:00;9.38;;;8.68;;
8401;SDS011;4238;48.404;9.498;2022-07-23T05:06:27;9.65;;;8.82;;
8401;SDS011;4238;48.404;9.498;2022-07-23T05:08:54;10.55;;;9.52;;
8401;SDS011;4238;48.404;9.498;2022-07-23T05:11:22;10.35;;;9.07;;
8401;SDS011;4238;48.404;9.498;2022-07-23T05:13:49;9.48;;;8.65;;
8401;SDS011;4238;48.404;9.498;2022-07-23T05:16:16;9.48;;;8.68;;
8401;SDS011;4238;48.404;9.498;2022-07-23T05:18:43;10.23;;;9.32;;
8401;SDS011;4238;48.404;9.498;2022-07-23T05:21:10;10.27;;;9.18;;
8401;SDS011;4238;48.404;9.498;2022-07-23T05:23:37;9.10;;;8.45;;
8401;SDS011;4238;48.404;9.498;2022-07-23T05:26:04;9.88;;;8.98;;
8401;SDS011;4238;48.404;9.498;2022-07-23T05:28:32;8.80;;;8.00;;
8401;SDS011;4238;48.404;9.498;2022-07-23T05:30:59;9.20;;;8.50;;
8401;SDS011;4238;48.404;9.498;2022-07-23T05:33:26;9.07;;;8.35;;
8401;SDS011;4238;48.404;9.498;2022-07-23T05:35:53;8.25;;;7.55;;
8401;SDS011;4238;48.404;9.498;2022-07-23T05:38:25;8.40;;;7.70;;
8401;SDS011;4238;48.404;9.498;2022-07-23T05:40:52;9.18;;;8.40;;
8401;SDS011;4238;48.404;9.498;2022-07-23T05:43:19;8.85;;;8.15;;
8401;SDS011;4238;48.404;9.498;2022-07-23T05:45:48;8.88;;;8.18;;
8401;SDS011;4238;48.404;9.498;2022-07-23T05:48:15;10.05;;;9.10;;
8401;SDS011;4238;48.404;9.498;2022-07-23T05:50:42;8.45;;;7.82;;
8401;SDS011;4238;48.404;9.498;2022-07-23T05:53:09;10.45;;;9.50;;
8401;SDS011;4238;48.404;9.498;2022-07-23T05:55:36;11.32;;;9.32;;
8401;SDS011;4238;48.404;9.498;2022-07-23T05:58:02;9.93;;;9.13;;
8401;SDS011;4238;48.404;9.498;2022-07-23T06:00:29;10.65;;;9.85;;
8401;SDS011;4238;48.404;9.498;2022-07-23T06:02:58;9.50;;;8.70;;
8401;SDS011;4238;48.404;9.498;2022-07-23T06:05:25;9.75;;;8.95;;
8401;SDS011;4238;48.404;9.498;2022-07-23T06:07:52;9.88;;;8.98;;
8401;SDS011;4238;48.404;9.498;2022-07-23T06:10:19;9.48;;;8.68;;
8401;SDS011;4238;48.404;9.498;2022-07-23T06:12:47;9.35;;;8.45;;
8401;SDS011;4238;48.404;9.498;2022-07-23T06:15:13;9.82;;;8.98;;
8401;SDS011;4238;48.404;9.498;2022-07-23T06:17:40;9.00;;;8.30;;
8401;SDS011;4238;48.404;9.498;2022-07-23T06:20:09;9.02;;;8.27;;
8401;SDS011;4238;48.404;9.498;2022-07-23T06:22:36;9.10;;;8.32;;
8401;SDS011;4238;48.404;9.498;2022-07-23T06:25:04;8.98;;;8.20;;
8401;SDS011;4238;48.404;9.498;2022-07-23T06:27:32;9.27;;;8.48;;
8401;SDS011;4238;48.404;9.498;2022-07-23T06:29:59;9.13;;;8.43;;
8401;SDS011;4238;48.404;9.498;2022-07-23T06:32:26;9.18;;;8.48;;
8401;SDS011;4238;48.404;9.498;2022-07-23T06:34:53;9.10;;;8.35;;
8401;SDS011;4238;48.404;9.498;2022-07-23T06:37:21;9.88;;;9.02;;
8401;SDS011;4238;48.404;9.498;2022-07-23T06:39:48;9.75;;;8.85;;
8401;SDS011;4238;48.404;9.498;2022-07-23T06:42:15;8.82;;;8.13;;
8401;SDS011;4238;48.404;9.498;2022-07-23T06:44:42;9.00;;;8.30;;
8401;SDS011;4238;48.404;9.498;2022-07-23T06:47:08;8.85;;;8.18;;
8401;SDS011;4238;48.404;9.498;2022-07-23T06:49:35;8.73;;;8.02;;
8401;SDS011;4238;48.404;9.498;2022-07-23T06:52:02;8.68;;;7.97;;
8401;SDS011;4238;48.404;9.498;2022-07-23T06:54:31;8.82;;;8.23;;
8401;SDS011;4238;48.404;9.498;2022-07-23T06:56:58;8.55;;;7.93;;
8401;SDS011;4238;48.404;9.498;2022-07-23T06:59:25;8.70;;;7.90;;
8401;SDS011;4238;48.404;9.498;2022-07-23T07:01:52;9.55;;;7.93;;
8401;SDS011;4238;48.404;9.498;2022-07-23T07:04:19;8.65;;;7.95;;
8401;SDS011;4238;48.404;9.498;2022-07-23T07:06:46;9.50;;;8.80;;
8401;SDS011;4238;48.404;9.498;2022-07-23T07:09:12;8.50;;;7.90;;
8401;SDS011;4238;48.404;9.498;2022-07-23T07:11:41;9.10;;;8.40;;
8401;SDS011;4238;48.404;9.498;2022-07-23T07:14:08;8.40;;;7.80;;
8401;SDS011;4238;48.404;9.498;2022-07-23T07:16:35;8.05;;;7.38;;
8401;SDS011;4238;48.404;9.498;2022-07-23T07:19:02;7.97;;;7.32;;
8401;SDS011;4238;48.404;9.498;2022-07-23T07:21:28;8.50;;;7.90;;
8401;SDS011;4238;48.404;9.498;2022-07-23T07:23:55;8.60;;;7.80;;
8401;SDS011;4238;48.404;9.498;2022-07-23T07:26:22;8.23;;;7.63;;
8401;SDS011;4238;48.404;9.498;2022-07-23T07:28:51;8.20;;;7.53;;
8401;SDS011;4238;48.404;9.498;2022-07-23T07:31:18;8.07;;;7.38;;
8401;SDS011;4238;48.404;9.498;2022-07-23T07:33:45;7.72;;;7.13;;
8401;SDS011;4238;48.404;9.498;2022-07-23T07:36:11;6.93;;;6.43;;
8401;SDS011;4238;48.404;9.498;2022-07-23T07:38:38;8.15;;;7.43;;
8401;SDS011;4238;48.404;9.498;2022-07-23T07:41:05;7.78;;;6.97;;
8401;SDS011;4238;48.404;9.498;2022-07-23T07:43:35;10.77;;;7.55;;
8401;SDS011;4238;48.404;9.498;2022-07-23T07:46:03;8.05;;;7.35;;
8401;SDS011;4238;48.404;9.498;2022-07-23T07:48:31;8.40;;;7.80;;
8401;SDS011;4238;48.404;9.498;2022-07-23T07:50:58;7.95;;;7.35;;
8401;SDS011;4238;48.404;9.498;2022-07-23T07:53:25;8.00;;;7.28;;
8401;SDS011;4238;48.404;9.498;2022-07-23T07:55:52;7.95;;;7.35;;
8401;SDS011;4238;48.404;9.498;2022-07-23T07:58:19;8.38;;;7.65;;
8401;SDS011;4238;48.404;9.498;2022-07-23T08:00:46;7.90;;;7.30;;
8401;SDS011;4238;48.404;9.498;2022-07-23T08:03:14;7.22;;;6.63;;
8401;SDS011;4238;48.404;9.498;2022-07-23T08:05:41;7.50;;;6.90;;
8401;SDS011;4238;48.404;9.498;2022-07-23T08:08:08;7.63;;;6.90;;
8401;SDS011;4238;48.404;9.498;2022-07-23T08:10:39;7.57;;;6.93;;
8401;SDS011;4238;48.404;9.498;2022-07-23T08:13:11;7.25;;;6.75;;
8401;SDS011;4238;48.404;9.498;2022-07-23T08:15:39;7.90;;;7.30;;
8401;SDS011;4238;48.404;9.498;2022-07-23T08:18:06;8.43;;;7.82;;
8401;SDS011;4238;48.404;9.498;2022-07-23T08:20:34;7.43;;;6.82;;
8401;SDS011;4238;48.404;9.498;2022-07-23T08:23:02;7.57;;;6.97;;
8401;SDS011;4238;48.404;9.498;2022-07-23T08:25:31;7.55;;;7.05;;
8401;SDS011;4238;48.404;9.498;2022-07-23T08:28:00;7.15;;;6.57;;
8401;SDS011;4238;48.404;9.498;2022-07-23T08:30:28;7.10;;;6.50;;
8401;SDS011;4238;48.404;9.498;2022-07-23T08:32:57;7.20;;;6.65;;
8401;SDS011;4238;48.404;9.498;2022-07-23T08:35:26;7.63;;;7.03;;
8401;SDS011;4238;48.404;9.498;2022-07-23T08:37:56;7.88;;;7.28;;
8401;SDS011;4238;48.404;9.498;2022-07-23T08:40:24;8.25;;;7.55;;
8401;SDS011;4238;48.404;9.498;2022-07-23T08:42:52;7.93;;;7.28;;
8401;SDS011;4238;48.404;9.498;2022-07-23T08:45:20;7.70;;;7.18;;
8401;SDS011;4238;48.404;9.498;2022-07-23T08:47:49;7.75;;;7.15;;
8401;SDS011;4238;48.404;9.498;2022-07-23T08:50:17;7.95;;;7.45;;
8401;SDS011;4238;48.404;9.498;2022-07-23T08:52:44;7.63;;;6.97;;
8401;SDS011;4238;48.404;9.498;2022-07-23T08:55:12;7.72;;;7.13;;
8401;SDS011;4238;48.404;9.498;2022-07-23T08:57:40;8.52;;;7.80;;
8401;SDS011;4238;48.404;9.498;2022-07-23T09:00:08;7.35;;;6.85;;
8401;SDS011;4238;48.404;9.498;2022-07-23T09:02:38;7.50;;;6.90;;
8401;SDS011;4238;48.404;9.498;2022-07-23T09:05:07;7.60;;;7.03;;
8401;SDS011;4238;48.404;9.498;2022-07-23T09:07:34;7.65;;;7.05;;
8401;SDS011;4238;48.404;9.498;2022-07-23T09:10:05;7.38;;;6.88;;
8401;SDS011;4238;48.404;9.498;2022-07-23T09:12:35;7.38;;;6.88;;
8401;SDS011;4238;48.404;9.498;2022-07-23T09:15:05;7.47;;;6.88;;
8401;SDS011;4238;48.404;9.498;2022-07-23T09:17:39;7.00;;;6.50;;
8401;SDS011;4238;48.404;9.498;2022-07-23T09:20:08;7.88;;;7.20;;
8401;SDS011;4238;48.404;9.498;2022-07-23T09:22:37;8.00;;;7.32;;
8401;SDS011;4238;48.404;9.498;2022-07-23T09:25:05;8.90;;;8.20;;
8401;SDS011;4238;48.404;9.498;2022-07-23T09:27:55;8.07;;;7.47;;
8401;SDS011;4238;48.404;9.498;2022-07-23T09:30:25;7.78;;;7.18;;
8401;SDS011;4238;48.404;9.498;2022-07-23T09:43:25;7.55;;;6.95;;
8401;SDS011;4238;48.404;9.498;2022-07-23T09:45:53;8.32;;;7.63;;
8401;SDS011;4238;48.404;9.498;2022-07-23T09:48:44;7.93;;;7.32;;
8401;SDS011;4238;48.404;9.498;2022-07-23T09:51:11;8.85;;;8.15;;
8401;SDS011;4238;48.404;9.498;2022-07-23T09:53:39;8.45;;;7.75;;
8401;SDS011;4238;48.404;9.498;2022-07-23T09:56:06;6.93;;;6.43;;
8401;SDS011;4238;48.404;9.498;2022-07-23T09:58:35;8.27;;;7.68;;
8401;SDS011;4238;48.404;9.498;2022-07-23T10:01:10;8.60;;;8.00;;
8401;SDS011;4238;48.404;9.498;2022-07-23T10:03:37;7.40;;;6.90;;
8401;SDS011;4238;48.404;9.498;2022-07-23T10:06:05;7.78;;;7.28;;
8401;SDS011;4238;48.404;9.498;2022-07-23T10:08:33;8.48;;;7.80;;
8401;SDS011;4238;48.404;9.498;2022-07-23T10:11:01;7.88;;;7.28;;
8401;SDS011;4238;48.404;9.498;2022-07-23T10:13:28;8.05;;;7.35;;
8401;SDS011;4238;48.404;9.498;2022-07-23T10:16:14;7.75;;;7.05;;
8401;SDS011;4238;48.404;9.498;2022-07-23T10:18:42;7.65;;;7.15;;
8401;SDS011;4238;48.404;9.498;2022-07-23T10:21:09;7.80;;;7.20;;
8401;SDS011;4238;48.404;9.498;2022-07-23T10:23:37;7.97;;;7.38;;
8401;SDS011;4238;48.404;9.498;2022-07-23T10:26:10;7.72;;;7.22;;
8401;SDS011;4238;48.404;9.498;2022-07-23T10:28:54;7.63;;;7.05;;
8401;SDS011;4238;48.404;9.498;2022-07-23T10:31:31;7.45;;;6.95;;
8401;SDS011;4238;48.404;9.498;2022-07-23T10:34:08;7.95;;;7.32;;
8401;SDS011;4238;48.404;9.498;2022-07-23T10:36:42;7.72;;;7.18;;
8401;SDS011;4238;48.404;9.498;2022-07-23T10:39:17;7.93;;;7.32;;
8401;SDS011;4238;48.404;9.498;2022-07-23T10:41:48;7.63;;;7.13;;
8401;SDS011;4238;48.404;9.498;2022-07-23T10:54:39;8.15;;;7.55;;
8401;SDS011;4238;48.404;9.498;2022-07-23T10:57:06;7.13;;;6.63;;
8401;SDS011;4238;48.404;9.498;2022-07-23T11:02:43;7.80;;;7.22;;
8401;SDS011;4238;48.404;9.498;2022-07-23T11:05:12;7.93;;;7.22;;
8401;SDS011;4238;48.404;9.498;2022-07-23T11:10:41;7.95;;;7.45;;
8401;SDS011;4238;48.404;9.498;2022-07-23T11:13:32;8.23;;;7.60;;
8401;SDS011;4238;48.404;9.498;2022-07-23T11:16:19;8.48;;;7.88;;
8401;SDS011;4238;48.404;9.498;2022-07-23T11:19:06;8.23;;;7.63;;
8401;SDS011;4238;48.404;9.498;2022-07-23T11:21:49;8.30;;;7.78;;
8401;SDS011;4238;48.404;9.498;2022-07-23T11:24:20;8.40;;;7.80;;
8401;SDS011;4238;48.404;9.498;2022-07-23T11:26:52;9.13;;;8.43;;
8401;SDS011;4238;48.404;9.498;2022-07-23T11:32:00;8.60;;;8.00;;
8401;SDS011;4238;48.404;9.498;2022-07-23T11:34:29;8.70;;;8.02;;
8401;SDS011;4238;48.404;9.498;2022-07-23T11:36:57;9.27;;;8.57;;
8401;SDS011;4238;48.404;9.498;2022-07-23T11:39:26;8.63;;;8.02;;
8401;SDS011;4238;48.404;9.498;2022-07-23T11:41:55;8.77;;;8.07;;
8401;SDS011;4238;48.404;9.498;2022-07-23T11:44:24;8.95;;;8.07;;
8401;SDS011;4238;48.404;9.498;2022-07-23T11:46:55;8.85;;;8.05;;
8401;SDS011;4238;48.404;9.498;2022-07-23T11:49:23;8.10;;;7.55;;
8401;SDS011;4238;48.404;9.498;2022-07-23T11:52:02;9.00;;;8.32;;
8401;SDS011;4238;48.404;9.498;2022-07-23T11:54:30;9.13;;;8.43;;
8401;SDS011;4238;48.404;9.498;2022-07-23T11:56:59;9.23;;;8.35;;
8401;SDS011;4238;48.404;9.498;2022-07-23T11:59:27;9.18;;;8.48;;
8401;SDS011;4238;48.404;9.498;2022-07-23T12:01:57;9.00;;;8.30;;
8401;SDS011;4238;48.404;9.498;2022-07-23T12:04:28;9.60;;;8.80;;
8401;SDS011;4238;48.404;9.498;2022-07-23T12:07:04;8.93;;;8.18;;
8401;SDS011;4238;48.404;9.498;2022-07-23T12:09:48;8.77;;;8.15;;
8401;SDS011;4238;48.404;9.498;2022-07-23T12:12:16;9.82;;;8.93;;
8401;SDS011;4238;48.404;9.498;2022-07-23T12:27:42;9.13;;;8.43;;
8401;SDS011;4238;48.404;9.498;2022-07-23T12:30:20;8.80;;;8.10;;
8401;SDS011;4238;48.404;9.498;2022-07-23T12:32:49;8.88;;;8.18;;
8401;SDS011;4238;48.404;9.498;2022-07-23T12:35:18;8.85;;;8.23;;
8401;SDS011;4238;48.404;9.498;2022-07-23T12:37:46;8.85;;;8.25;;
8401;SDS011;4238;48.404;9.498;2022-07-23T12:43:05;8.95;;;8.30;;
8401;SDS011;4238;48.404;9.498;2022-07-23T12:45:43;9.43;;;8.63;;
8401;SDS011;4238;48.404;9.498;2022-07-23T12:48:16;9.13;;;8.35;;
8401;SDS011;4238;48.404;9.498;2022-07-23T12:50:48;9.35;;;8.60;;
8401;SDS011;4238;48.404;9.498;2022-07-23T12:53:21;8.60;;;8.00;;
8401;SDS011;4238;48.404;9.498;2022-07-23T12:55:49;8.43;;;7.82;;
8401;SDS011;4238;48.404;9.498;2022-07-23T12:58:19;8.68;;;8.07;;
8401;SDS011;4238;48.404;9.498;2022-07-23T13:00:51;9.63;;;8.93;;
8401;SDS011;4238;48.404;9.498;2022-07-23T13:03:29;9.02;;;8.32;;
8401;SDS011;4238;48.404;9.498;2022-07-23T13:05:58;9.18;;;8.43;;
8401;SDS011;4238;48.404;9.498;2022-07-23T13:08:27;9.55;;;8.82;;
8401;SDS011;4238;48.404;9.498;2022-07-23T13:10:55;9.38;;;8.68;;
8401;SDS011;4238;48.404;9.498;2022-07-23T13:13:24;9.52;;;8.82;;
8401;SDS011;4238;48.404;9.498;2022-07-23T13:15:53;9.30;;;8.50;;
8401;SDS011;4238;48.404;9.498;2022-07-23T13:18:21;8.88;;;8.20;;
8401;SDS011;4238;48.404;9.498;2022-07-23T13:20:48;8.95;;;8.35;;
8401;SDS011;4238;48.404;9.498;2022-07-23T13:33:38;9.52;;;8.73;;
8401;SDS011;4238;48.404;9.498;2022-07-23T13:36:06;8.70;;;8.10;;
8401;SDS011;4238;48.404;9.498;2022-07-23T13:38:33;9.80;;;9.10;;
8401;SDS011;4238;48.404;9.498;2022-07-23T13:41:00;8.95;;;8.18;;
8401;SDS011;4238;48.404;9.498;2022-07-23T13:43:28;9.80;;;8.90;;
8401;SDS011;4238;48.404;9.498;2022-07-23T13:45:55;9.38;;;8.57;;
8401;SDS011;4238;48.404;9.498;2022-07-23T13:48:22;9.23;;;8.52;;
8401;SDS011;4238;48.404;9.498;2022-07-23T13:50:51;9.88;;;9.07;;
8401;SDS011;4238;48.404;9.498;2022-07-23T13:53:19;9.13;;;8.45;;
8401;SDS011;4238;48.404;9.498;2022-07-23T13:55:49;11.90;;;10.80;;
8401;SDS011;4238;48.404;9.498;2022-07-23T13:58:17;9.30;;;8.55;;
8401;SDS011;4238;48.404;9.498;2022-07-23T14:00:45;9.13;;;8.43;;
8401;SDS011;4238;48.404;9.498;2022-07-23T14:03:13;9.00;;;8.20;;
8401;SDS011;4238;48.404;9.498;2022-07-23T14:05:40;8.82;;;8.15;;
8401;SDS011;4238;48.404;9.498;2022-07-23T14:08:08;10.38;;;9.60;;
8401;SDS011;4238;48.404;9.498;2022-07-23T14:10:36;9.68;;;8.88;;
8401;SDS011;4238;48.404;9.498;2022-07-23T14:13:03;8.52;;;7.93;;
8401;SDS011;4238;48.404;9.498;2022-07-23T14:15:30;8.60;;;8.10;;
8401;SDS011;4238;48.404;9.498;2022-07-23T14:17:58;9.90;;;9.10;;
8401;SDS011;4238;48.404;9.498;2022-07-23T14:20:25;8.85;;;8.15;;
8401;SDS011;4238;48.404;9.498;2022-07-23T14:22:53;9.23;;;8.52;;
8401;SDS011;4238;48.404;9.498;2022-07-23T14:25:22;9.23;;;8.52;;
8401;SDS011;4238;48.404;9.498;2022-07-23T14:27:49;8.70;;;8.10;;
8401;SDS011;4238;48.404;9.498;2022-07-23T14:30:16;8.85;;;8.25;;
8401;SDS011;4238;48.404;9.498;2022-07-23T14:32:43;9.32;;;8.52;;
8401;SDS011;4238;48.404;9.498;2022-07-23T14:48:08;9.00;;;8.10;;
8401;SDS011;4238;48.404;9.498;2022-07-23T14:50:35;8.30;;;7.70;;
8401;SDS011;4238;48.404;9.498;2022-07-23T14:53:02;8.00;;;7.40;;
8401;SDS011;4238;48.404;9.498;2022-07-23T14:55:30;7.28;;;6.68;;
8401;SDS011;4238;48.404;9.498;2022-07-23T14:57:57;7.72;;;7.13;;
8401;SDS011;4238;48.404;9.498;2022-07-23T15:00:24;8.15;;;7.55;;
8401;SDS011;4238;48.404;9.498;2022-07-23T15:02:51;8.05;;;7.45;;
8401;SDS011;4238;48.404;9.498;2022-07-23T15:05:20;7.70;;;7.18;;
8401;SDS011;4238;48.404;9.498;2022-07-23T15:07:47;7.35;;;6.85;;
8401;SDS011;4238;48.404;9.498;2022-07-23T15:10:15;6.75;;;6.25;;
8401;SDS011;4238;48.404;9.498;2022-07-23T15:12:42;8.27;;;7.60;;
8401;SDS011;4238;48.404;9.498;2022-07-23T15:15:09;7.78;;;7.07;;
8401;SDS011;4238;48.404;9.498;2022-07-23T15:17:36;7.75;;;7.18;;
8401;SDS011;4238;48.404;9.498;2022-07-23T15:20:04;7.47;;;6.80;;
8401;SDS011;4238;48.404;9.498;2022-07-23T15:22:33;7.70;;;7.10;;
8401;SDS011;4238;48.404;9.498;2022-07-23T15:25:00;7.70;;;7.20;;
8401;SDS011;4238;48.404;9.498;2022-07-23T15:27:27;8.35;;;7.65;;
8401;SDS011;4238;48.404;9.498;2022-07-23T15:29:54;8.38;;;7.78;;
8401;SDS011;4238;48.404;9.498;2022-07-23T15:32:21;7.70;;;7.10;;
8401;SDS011;4238;48.404;9.498;2022-07-23T15:34:50;7.80;;;7.20;;
8401;SDS011;4238;48.404;9.498;2022-07-23T15:37:17;8.05;;;7.32;;
8401;SDS011;4238;48.404;9.498;2022-07-23T15:39:45;7.72;;;7.13;;
8401;SDS011;4238;48.404;9.498;2022-07-23T15:42:12;7.82;;;7.22;;
8401;SDS011;4238;48.404;9.498;2022-07-23T15:44:39;8.13;;;7.53;;
8401;SDS011;4238;48.404;9.498;2022-07-23T15:47:06;7.82;;;7.28;;
8401;SDS011;4238;48.404;9.498;2022-07-23T15:49:38;8.52;;;7.75;;
8401;SDS011;4238;48.404;9.498;2022-07-23T15:52:05;8.73;;;7.93;;
8401;SDS011;4238;48.404;9.498;2022-07-23T15:54:34;8.00;;;7.40;;
8401;SDS011;4238;48.404;9.498;2022-07-23T15:57:04;8.27;;;7.68;;
8401;SDS011;4238;48.404;9.498;2022-07-23T15:59:31;7.95;;;7.45;;
8401;SDS011;4238;48.404;9.498;2022-07-23T16:01:58;8.38;;;7.75;;
8401;SDS011;4238;48.404;9.498;2022-07-23T16:04:25;7.85;;;7.15;;
8401;SDS011;4238;48.404;9.498;2022-07-23T16:06:52;7.97;;;7.28;;
8401;SDS011;4238;48.404;9.498;2022-07-23T16:09:19;7.85;;;7.25;;
8401;SDS011;4238;48.404;9.498;2022-07-23T16:11:46;7.75;;;7.25;;
8401;SDS011;4238;48.404;9.498;2022-07-23T16:14:14;8.65;;;7.95;;
8401;SDS011;4238;48.404;9.498;2022-07-23T16:16:42;8.20;;;7.60;;
8401;SDS011;4238;48.404;9.498;2022-07-23T16:19:09;8.43;;;7.78;;
8401;SDS011;4238;48.404;9.498;2022-07-23T16:21:36;7.90;;;7.30;;
8401;SDS011;4238;48.404;9.498;2022-07-23T16:24:03;8.05;;;7.35;;
8401;SDS011;4238;48.404;9.498;2022-07-23T16:26:30;8.35;;;7.68;;
8401;SDS011;4238;48.404;9.498;2022-07-23T16:28:57;7.90;;;7.30;;
8401;SDS011;4238;48.404;9.498;2022-07-23T16:31:25;8.30;;;7.70;;
8401;SDS011;4238;48.404;9.498;2022-07-23T16:33:52;7.88;;;7.38;;
8401;SDS011;4238;48.404;9.498;2022-07-23T16:36:20;8.32;;;7.72;;
8401;SDS011;4238;48.404;9.498;2022-07-23T16:38:47;7.90;;;7.40;;
8401;SDS011;4238;48.404;9.498;2022-07-23T16:41:14;8.20;;;7.60;;
8401;SDS011;4238;48.404;9.498;2022-07-23T16:43:41;8.48;;;7.75;;